Stromsburg, Nebraska
Current Conditions -  °F | °C
As of 5:55 AM on Saturday 25 Oct 2014 (Local Time) from KJYR Reporting Station
Clear Clear  
Wind Chill: 40°   Ceiling: Unl
Heat Index: 45°   Visibility: 8mi
Dew Point: 43°   Wind: 8mph
Humidity: 93%   Direction: 10°N
Pressure: 30.07"   Gusts: NA
Location:  41.11°N, 97.6°W
Report Text: KJYR 251055Z AUTO 01007KT 8SM CLR 07/06 A3007 RMK AO2
Loading
Personal Weather Stations






























Interactive Weather Map
Tropical Storm Tracking
New forecast layout! Learn more

10-Day Weather Forecast

Advertisements
Track Severe Weather on mobile